Time;durP1;ratioP1;P1;durP2;ratioP2;P2;SDS_P1;SDS_P2;PMS_P1;PMS_P2;Temp;Humidity;BMP_temperature;BMP_pressure;BME280_temperature;BME280_humidity;BME280_pressure;Samples;Min_cycle;Max_cycle;Signal;HPM_P1;HPM_P2
2022/06/14 00:02:51;;;;;;;21.73;20.48;;;;;;;;;;5019057;28;20511;-64
2022/06/14 00:05:16;;;;;;;22.70;21.42;;;;;;;;;;5020332;28;20099;-64
2022/06/14 00:07:41;;;;;;;35.15;33.33;;;;;;;;;;5017811;28;20100;-64
2022/06/14 00:10:07;;;;;;;29.23;27.70;;;;;;;;;;5017806;28;20278;-64
2022/06/14 00:12:32;;;;;;;37.10;35.17;;;;;;;;;;5019279;28;20021;-64
2022/06/14 00:14:58;;;;;;;29.23;27.67;;;;;;;;;;5018258;28;20588;-64
2022/06/14 00:17:23;;;;;;;35.92;34.05;;;;;;;;;;5019413;28;20064;-65
2022/06/14 00:19:48;;;;;;;37.30;35.38;;;;;;;;;;5020111;28;20025;-64
2022/06/14 00:22:14;;;;;;;39.28;37.25;;;;;;;;;;5016329;28;20042;-64
2022/06/14 00:24:39;;;;;;;52.20;49.55;;;;;;;;;;5018730;28;20415;-64
2022/06/14 00:27:05;;;;;;;56.97;54.03;;;;;;;;;;5017222;28;20444;-64
2022/06/14 00:29:30;;;;;;;62.17;59.05;;;;;;;;;;5017829;28;20109;-64
2022/06/14 00:31:56;;;;;;;57.20;54.33;;;;;;;;;;5015476;28;20030;-65
2022/06/14 00:34:21;;;;;;;59.25;56.25;;;;;;;;;;5017916;28;20030;-66
2022/06/14 00:36:52;;;;;;;60.90;57.83;;;;;;;;;;5017275;28;20046;-67
2022/06/14 00:39:17;;;;;;;37.78;35.83;;;;;;;;;;5015483;28;20039;-66
2022/06/14 00:41:46;;;;;;;67.50;64.10;;;;;;;;;;5020227;28;20099;-66
2022/06/14 00:44:24;;;;;;;44.75;42.47;;;;;;;;;;5017546;28;20061;-66
2022/06/14 00:47:04;;;;;;;46.70;44.33;;;;;;;;;;5016480;28;20125;-66
2022/06/14 00:49:53;;;;;;;34.70;32.85;;;;;;;;;;5015315;28;20102;-65
2022/06/14 00:52:27;;;;;;;28.55;26.95;;;;;;;;;;5017727;28;20098;-64
2022/06/14 00:54:59;;;;;;;31.40;29.75;;;;;;;;;;5018818;28;20029;-64
2022/06/14 00:57:28;;;;;;;31.35;29.70;;;;;;;;;;5032254;28;20120;-64
2022/06/14 01:00:01;;;;;;;35.20;33.40;;;;;;;;;;5016987;28;20029;-64
2022/06/14 01:02:30;;;;;;;41.65;39.50;;;;;;;;;;5016532;28;20044;-64
2022/06/14 01:05:01;;;;;;;38.83;36.83;;;;;;;;;;5017548;28;20367;-64
2022/06/14 01:07:30;;;;;;;51.30;48.65;;;;;;;;;;5016398;28;20025;-64
2022/06/14 01:10:04;;;;;;;50.35;47.78;;;;;;;;;;5018459;28;20030;-64
2022/06/14 01:12:34;;;;;;;60.33;57.28;;;;;;;;;;5016386;28;20021;-64
2022/06/14 01:15:16;;;;;;;55.80;52.95;;;;;;;;;;5024296;28;20029;-63
2022/06/14 01:17:46;;;;;;;46.10;43.75;;;;;;;;;;5016212;28;20033;-64
2022/06/14 01:20:17;;;;;;;44.73;42.43;;;;;;;;;;5017687;28;20471;-63
2022/06/14 01:22:44;;;;;;;36.33;34.40;;;;;;;;;;5015295;28;20055;-63
2022/06/14 01:25:09;;;;;;;28.83;27.30;;;;;;;;;;5017583;28;20049;-63
2022/06/14 01:27:38;;;;;;;24.08;22.77;;;;;;;;;;5018956;28;20136;-64
2022/06/14 01:30:14;;;;;;;39.13;37.10;;;;;;;;;;5015658;28;20088;-63
2022/06/14 01:33:06;;;;;;;43.47;41.22;;;;;;;;;;5017073;28;20025;-64
2022/06/14 01:35:35;;;;;;;50.40;47.80;;;;;;;;;;5033032;28;20022;-63
2022/06/14 01:38:04;;;;;;;55.03;52.25;;;;;;;;;;5013867;28;20045;-63
2022/06/14 01:40:59;;;;;;;62.47;59.25;;;;;;;;;;5015494;28;20036;-63
2022/06/14 01:44:05;;;;;;;65.57;62.28;;;;;;;;;;5019063;28;20041;-65
2022/06/14 01:47:02;;;;;;;64.88;61.58;;;;;;;;;;5016200;28;20033;-64
2022/06/14 01:53:06;;;;;;;63.20;60.00;;;;;;;;;;5015828;28;20037;-64
2022/06/14 01:55:51;;;;;;;57.33;54.42;;;;;;;;;;4991966;28;20044;-64
2022/06/14 01:58:45;;;;;;;53.20;50.50;;;;;;;;;;5017410;28;20090;-65
2022/06/14 02:01:11;;;;;;;44.80;42.40;;;;;;;;;;5016644;28;20096;-64
2022/06/14 02:06:50;;;;;;;44.20;41.97;;;;;;;;;;5015073;28;20061;-64
2022/06/14 02:09:22;;;;;;;44.58;42.33;;;;;;;;;;5016745;28;20053;-64
2022/06/14 02:11:48;;;;;;;45.15;42.75;;;;;;;;;;5014985;28;20119;-64
2022/06/14 02:14:25;;;;;;;46.28;43.90;;;;;;;;;;5019603;28;20168;-64
2022/06/14 02:16:54;;;;;;;39.33;37.28;;;;;;;;;;5015287;28;20041;-64
2022/06/14 02:19:28;;;;;;;38.97;36.97;;;;;;;;;;5018869;28;20064;-64
2022/06/14 02:22:05;;;;;;;35.65;33.78;;;;;;;;;;5016810;28;20132;-64
2022/06/14 02:24:38;;;;;;;33.17;31.42;;;;;;;;;;5014194;28;20121;-64
2022/06/14 02:27:18;;;;;;;33.63;31.85;;;;;;;;;;5015967;28;20034;-64
2022/06/14 02:29:48;;;;;;;30.00;28.42;;;;;;;;;;5017782;28;20105;-63
2022/06/14 02:32:34;;;;;;;28.33;26.88;;;;;;;;;;5013943;28;20037;-64
2022/06/14 02:35:04;;;;;;;27.10;25.65;;;;;;;;;;5014433;28;20041;-64
2022/06/14 02:37:38;;;;;;;22.63;21.42;;;;;;;;;;5014662;28;20505;-64
2022/06/14 02:40:14;;;;;;;17.70;16.63;;;;;;;;;;5016917;28;20037;-64
2022/06/14 02:42:58;;;;;;;14.18;13.38;;;;;;;;;;5015948;28;20029;-63
2022/06/14 02:45:31;;;;;;;20.40;18.20;;;;;;;;;;5014209;28;20439;-63
2022/06/14 02:48:16;;;;;;;18.25;17.15;;;;;;;;;;5016161;28;20061;-66
2022/06/14 02:51:00;;;;;;;18.63;17.42;;;;;;;;;;5015168;28;20022;-66
2022/06/14 02:53:45;;;;;;;22.45;21.23;;;;;;;;;;5015552;28;20033;-66
2022/06/14 02:56:19;;;;;;;21.60;20.42;;;;;;;;;;5015714;28;20029;-66
2022/06/14 02:58:58;;;;;;;24.65;23.23;;;;;;;;;;5015425;28;20030;-66
2022/06/14 03:01:27;;;;;;;22.67;21.48;;;;;;;;;;5014683;28;20037;-67
2022/06/14 03:03:59;;;;;;;24.05;22.75;;;;;;;;;;5016960;28;20461;-66
2022/06/14 03:06:32;;;;;;;24.77;23.30;;;;;;;;;;5012401;28;20041;-66
2022/06/14 03:09:03;;;;;;;25.10;23.75;;;;;;;;;;5015842;28;20034;-67
2022/06/14 03:12:02;;;;;;;20.17;19.08;;;;;;;;;;5013418;28;20057;-67
2022/06/14 03:14:53;;;;;;;23.27;22.02;;;;;;;;;;5014596;28;20066;-67
2022/06/14 03:17:25;;;;;;;;;;;;;;;;;;5015357;28;20048;-67
2022/06/14 03:20:08;;;;;;;21.92;20.73;;;;;;;;;;5012717;28;19910;-68
2022/06/14 03:22:55;;;;;;;17.08;16.08;;;;;;;;;;5017946;28;20558;-67
2022/06/14 03:25:48;;;;;;;18.20;17.13;;;;;;;;;;5019532;28;20538;-67
2022/06/14 03:28:25;;;;;;;22.90;21.60;;;;;;;;;;5034690;28;20041;-68
2022/06/14 03:31:03;;;;;;;23.80;22.50;;;;;;;;;;5034509;28;20159;-67
2022/06/14 03:33:42;;;;;;;30.00;28.40;;;;;;;;;;5020630;28;20030;-67
2022/06/14 03:36:10;;;;;;;24.50;23.20;;;;;;;;;;5017033;28;20659;-67
2022/06/14 03:38:55;;;;;;;23.55;22.27;;;;;;;;;;5019519;28;20026;-67
2022/06/14 03:41:26;;;;;;;24.25;22.95;;;;;;;;;;5020260;28;20060;-68
2022/06/14 03:43:52;;;;;;;26.85;25.45;;;;;;;;;;5019837;28;20443;-66
2022/06/14 03:46:21;;;;;;;26.20;24.80;;;;;;;;;;5022056;28;20487;-66
2022/06/14 03:48:50;;;;;;;35.90;34.05;;;;;;;;;;5018944;28;20040;-66
2022/06/14 03:51:34;;;;;;;35.17;33.38;;;;;;;;;;5017766;28;20037;-66
2022/06/14 03:54:12;;;;;;;34.08;32.13;;;;;;;;;;5023166;28;20099;-66
2022/06/14 03:57:02;;;;;;;34.28;32.47;;;;;;;;;;5020276;28;20603;-65
2022/06/14 03:59:59;;;;;;;41.03;38.72;;;;;;;;;;5020006;28;20457;-66
2022/06/14 04:02:53;;;;;;;32.45;30.45;;;;;;;;;;5013569;28;20049;-66
2022/06/14 04:05:41;;;;;;;35.60;33.70;;;;;;;;;;5017487;28;20192;-67
2022/06/14 04:08:35;;;;;;;36.33;34.45;;;;;;;;;;5015942;28;20053;-67
2022/06/14 04:11:09;;;;;;;42.35;39.90;;;;;;;;;;5016439;28;20336;-67
2022/06/14 04:13:58;;;;;;;42.25;40.08;;;;;;;;;;5014716;28;20513;-67
2022/06/14 04:16:34;;;;;;;40.00;37.95;;;;;;;;;;5019916;28;20095;-67
2022/06/14 04:19:18;;;;;;;41.72;39.60;;;;;;;;;;5018300;28;20118;-67
2022/06/14 04:21:56;;;;;;;42.65;40.40;;;;;;;;;;5017947;28;20037;-59
2022/06/14 04:24:30;;;;;;;38.63;36.60;;;;;;;;;;5017874;28;20048;-59
2022/06/14 04:27:10;;;;;;;44.20;41.80;;;;;;;;;;5016229;28;20029;-60
2022/06/14 04:29:43;;;;;;;43.20;40.97;;;;;;;;;;5016826;28;20112;-59
2022/06/14 04:32:16;;;;;;;37.75;35.80;;;;;;;;;;5017572;28;20056;-60
2022/06/14 04:35:05;;;;;;;43.30;41.10;;;;;;;;;;5018290;28;20047;-60
2022/06/14 04:37:38;;;;;;;40.50;38.42;;;;;;;;;;5017595;28;20044;-60
2022/06/14 04:40:11;;;;;;;44.17;41.92;;;;;;;;;;5017400;28;20038;-60
2022/06/14 04:42:44;;;;;;;47.30;44.83;;;;;;;;;;5013381;28;20025;-59
2022/06/14 04:45:14;;;;;;;43.28;41.05;;;;;;;;;;5018210;28;20076;-60
2022/06/14 04:47:55;;;;;;;41.87;39.67;;;;;;;;;;5018163;28;20025;-67
2022/06/14 04:50:29;;;;;;;44.33;42.03;;;;;;;;;;5015049;28;20287;-67
2022/06/14 04:53:01;;;;;;;44.38;41.92;;;;;;;;;;5014565;28;20367;-67
2022/06/14 04:55:35;;;;;;;47.72;45.28;;;;;;;;;;5015755;28;20619;-67
2022/06/14 04:58:12;;;;;;;37.40;35.40;;;;;;;;;;5015942;28;20030;-66
2022/06/14 05:00:51;;;;;;;46.25;43.83;;;;;;;;;;5016623;28;20030;-66
2022/06/14 05:03:23;;;;;;;52.35;49.70;;;;;;;;;;5016897;28;20045;-66
2022/06/14 05:06:12;;;;;;;43.28;41.03;;;;;;;;;;5015930;28;20048;-66
2022/06/14 05:08:40;;;;;;;32.75;31.05;;;;;;;;;;5016023;28;20037;-66
2022/06/14 05:11:29;;;;;;;31.13;29.52;;;;;;;;;;5015679;28;20032;-66
2022/06/14 05:14:03;;;;;;;36.05;33.67;;;;;;;;;;5016963;28;20041;-66
2022/06/14 05:16:38;;;;;;;43.05;40.85;;;;;;;;;;5014669;28;20147;-67
2022/06/14 05:19:44;;;;;;;29.70;28.15;;;;;;;;;;5016091;28;20478;-67
2022/06/14 05:22:36;;;;;;;26.23;24.83;;;;;;;;;;4996630;28;20403;-66
2022/06/14 05:25:05;;;;;;;29.08;27.50;;;;;;;;;;5017716;28;20568;-66
2022/06/14 05:27:55;;;;;;;28.98;27.45;;;;;;;;;;5016659;28;20017;-67
2022/06/14 05:30:38;;;;;;;32.78;30.98;;;;;;;;;;5017315;28;20029;-65
2022/06/14 05:33:31;;;;;;;32.28;30.58;;;;;;;;;;5020796;28;20033;-66
2022/06/14 05:36:11;;;;;;;24.13;22.83;;;;;;;;;;5014618;28;20128;-67
2022/06/14 05:39:01;;;;;;;28.13;26.60;;;;;;;;;;5018119;28;20112;-65
2022/06/14 05:41:40;;;;;;;14.27;13.48;;;;;;;;;;5018216;28;20062;-63
2022/06/14 05:44:11;;;;;;;11.50;10.70;;;;;;;;;;5015564;28;20041;-63
2022/06/14 05:46:51;;;;;;;23.98;22.67;;;;;;;;;;5013606;28;20132;-64
2022/06/14 05:49:21;;;;;;;27.30;25.90;;;;;;;;;;5017055;28;20046;-63
2022/06/14 05:51:51;;;;;;;21.88;20.67;;;;;;;;;;5013563;28;20091;-64
2022/06/14 05:54:33;;;;;;;16.17;15.27;;;;;;;;;;5016677;28;20061;-62
2022/06/14 05:57:05;;;;;;;17.92;16.92;;;;;;;;;;5014447;28;20130;-64
2022/06/14 05:59:57;;;;;;;20.17;19.08;;;;;;;;;;5016945;28;20026;-64
2022/06/14 06:02:26;;;;;;;;;;;;;;;;;;5021923;28;20631;-62
2022/06/14 06:05:13;;;;;;;21.08;19.92;;;;;;;;;;5033906;28;20006;-63
2022/06/14 06:07:45;;;;;;;19.77;18.67;;;;;;;;;;5018147;28;20147;-62
2022/06/14 06:10:19;;;;;;;23.40;22.15;;;;;;;;;;5015508;28;20622;-63
2022/06/14 06:13:01;;;;;;;21.90;20.70;;;;;;;;;;5016317;28;20056;-63
2022/06/14 06:15:32;;;;;;;21.30;20.15;;;;;;;;;;5016633;28;20025;-63
2022/06/14 06:18:10;;;;;;;17.63;16.63;;;;;;;;;;5015802;28;20025;-63
2022/06/14 06:20:46;;;;;;;14.20;13.40;;;;;;;;;;5015753;28;20022;-62
2022/06/14 06:23:15;;;;;;;17.42;16.45;;;;;;;;;;5017654;28;20112;-63
2022/06/14 06:25:49;;;;;;;14.13;13.32;;;;;;;;;;5020301;28;20352;-62
2022/06/14 06:28:24;;;;;;;11.02;10.32;;;;;;;;;;5018649;28;20040;-62
2022/06/14 06:31:01;;;;;;;13.50;12.70;;;;;;;;;;5018287;28;20558;-63
2022/06/14 06:33:29;;;;;;;13.38;12.60;;;;;;;;;;5017240;28;20123;-63
2022/06/14 06:36:25;;;;;;;16.13;15.23;;;;;;;;;;5018179;28;20057;-63
2022/06/14 06:39:24;;;;;;;19.95;18.42;;;;;;;;;;5018467;28;20037;-63
2022/06/14 06:41:55;;;;;;;21.17;20.08;;;;;;;;;;5015256;28;20046;-63
2022/06/14 06:44:30;;;;;;;14.40;13.60;;;;;;;;;;5011934;28;20654;-64
2022/06/14 06:47:10;;;;;;;27.42;24.88;;;;;;;;;;5016150;28;20370;-64
2022/06/14 06:49:49;;;;;;;26.73;25.30;;;;;;;;;;5012615;28;20033;-64
2022/06/14 06:52:21;;;;;;;17.02;16.08;;;;;;;;;;5012715;28;20037;-63
2022/06/14 06:54:55;;;;;;;43.60;41.40;;;;;;;;;;5013861;28;20037;-63
2022/06/14 06:57:25;;;;;;;40.78;38.67;;;;;;;;;;5016562;28;20029;-63
2022/06/14 06:59:52;;;;;;;20.17;19.08;;;;;;;;;;5018926;28;20353;-64
2022/06/14 07:02:43;;;;;;;36.78;34.90;;;;;;;;;;5017289;28;20429;-59
2022/06/14 07:05:14;;;;;;;28.02;26.55;;;;;;;;;;5015991;28;20033;-59
2022/06/14 07:07:58;;;;;;;22.13;20.92;;;;;;;;;;5016305;28;20036;-59
2022/06/14 07:10:33;;;;;;;16.95;15.95;;;;;;;;;;5014591;28;20423;-59
2022/06/14 07:13:04;;;;;;;14.82;14.02;;;;;;;;;;5016786;28;20468;-59
2022/06/14 07:15:38;;;;;;;22.50;21.30;;;;;;;;;;5017368;28;20033;-59
2022/06/14 07:18:20;;;;;;;19.75;18.65;;;;;;;;;;5019152;28;20589;-60
2022/06/14 07:20:55;;;;;;;19.55;18.50;;;;;;;;;;5020355;28;20030;-59
2022/06/14 07:23:39;;;;;;;24.05;22.77;;;;;;;;;;5019185;28;20105;-59
2022/06/14 07:26:16;;;;;;;22.50;21.20;;;;;;;;;;5018386;28;20115;-59
2022/06/14 07:28:52;;;;;;;41.80;39.65;;;;;;;;;;5020084;28;20192;-60
2022/06/14 07:31:26;;;;;;;52.50;49.85;;;;;;;;;;5017684;28;20041;-59
2022/06/14 07:33:52;;;;;;;57.58;54.63;;;;;;;;;;5016544;28;20034;-59
2022/06/14 07:36:51;;;;;;;55.63;52.72;;;;;;;;;;5021213;28;20080;-59
2022/06/14 07:39:35;;;;;;;56.33;53.08;;;;;;;;;;5015217;28;20115;-59
2022/06/14 07:42:20;;;;;;;41.17;39.08;;;;;;;;;;5016863;28;20072;-59
2022/06/14 07:45:13;;;;;;;47.60;45.10;;;;;;;;;;5014689;28;20044;-59
2022/06/14 07:48:00;;;;;;;59.45;56.38;;;;;;;;;;5014988;28;20040;-60
2022/06/14 07:50:40;;;;;;;77.53;73.63;;;;;;;;;;5013832;28;20131;-59
2022/06/14 07:53:12;;;;;;;117.47;111.63;;;;;;;;;;5017327;28;20029;-60
2022/06/14 07:55:49;;;;;;;37.78;35.80;;;;;;;;;;5016125;28;20029;-59
2022/06/14 07:58:26;;;;;;;50.95;48.35;;;;;;;;;;5014927;28;20061;-60
2022/06/14 08:01:08;;;;;;;125.03;118.80;;;;;;;;;;5016201;28;20029;-59
2022/06/14 08:03:39;;;;;;;156.40;148.68;;;;;;;;;;5015642;28;20046;-59
2022/06/14 08:06:10;;;;;;;121.95;115.90;;;;;;;;;;5015657;28;20029;-59
2022/06/14 08:08:41;;;;;;;141.02;133.98;;;;;;;;;;5014909;28;20033;-60
2022/06/14 08:11:14;;;;;;;181.45;172.55;;;;;;;;;;5017312;28;20399;-59
2022/06/14 08:13:55;;;;;;;97.25;92.45;;;;;;;;;;5015406;28;20045;-59
2022/06/14 08:16:22;;;;;;;179.77;170.93;;;;;;;;;;5016157;28;20040;-59
2022/06/14 08:19:10;;;;;;;54.70;51.97;;;;;;;;;;5015008;28;20026;-59
2022/06/14 08:21:42;;;;;;;75.82;72.07;;;;;;;;;;5016334;28;20547;-59
2022/06/14 08:24:13;;;;;;;84.28;80.10;;;;;;;;;;5015968;28;20460;-59
2022/06/14 08:27:01;;;;;;;;;;;;;;;;;;5016480;28;20029;-60
2022/06/14 08:29:45;;;;;;;66.93;63.38;;;;;;;;;;5017336;28;19913;-59
2022/06/14 08:32:29;;;;;;;68.82;65.40;;;;;;;;;;5011740;28;20061;-59
2022/06/14 08:35:05;;;;;;;91.57;87.05;;;;;;;;;;5014778;28;20037;-59
2022/06/14 08:37:42;;;;;;;121.18;115.18;;;;;;;;;;5017225;28;20041;-59
2022/06/14 08:40:40;;;;;;;99.82;94.88;;;;;;;;;;5014424;28;20483;-59
2022/06/14 08:43:09;;;;;;;88.55;84.18;;;;;;;;;;5017409;28;20045;-59
2022/06/14 08:45:39;;;;;;;56.30;53.35;;;;;;;;;;5013099;28;20030;-59
2022/06/14 08:48:22;;;;;;;61.55;58.45;;;;;;;;;;5015618;28;20133;-60
2022/06/14 08:51:03;;;;;;;60.53;57.47;;;;;;;;;;5015528;28;20065;-59
2022/06/14 08:54:06;;;;;;;52.78;50.08;;;;;;;;;;5011657;28;20041;-59
2022/06/14 08:57:03;;;;;;;138.32;131.48;;;;;;;;;;5013595;28;20069;-59
2022/06/14 08:59:37;;;;;;;138.25;131.45;;;;;;;;;;5015197;28;21586;-59
2022/06/14 09:02:18;;;;;;;96.53;91.75;;;;;;;;;;5029647;28;20033;-60
2022/06/14 09:04:49;;;;;;;;;;;;;;;;;;5016253;28;20376;-60
2022/06/14 09:07:35;;;;;;;124.85;118.63;;;;;;;;;;5016294;28;19956;-59
2022/06/14 09:10:24;;;;;;;124.68;118.50;;;;;;;;;;5013757;28;20025;-58
2022/06/14 09:13:15;;;;;;;111.70;106.10;;;;;;;;;;5013333;28;20522;-59
2022/06/14 09:16:11;;;;;;;102.07;96.95;;;;;;;;;;5012174;28;20045;-58
2022/06/14 09:18:39;;;;;;;119.18;113.32;;;;;;;;;;5015515;28;20407;-59
2022/06/14 09:21:13;;;;;;;91.55;86.82;;;;;;;;;;5013224;28;20567;-59
2022/06/14 09:24:11;;;;;;;115.47;109.85;;;;;;;;;;5014472;28;20670;-59
2022/06/14 09:26:43;;;;;;;65.30;62.05;;;;;;;;;;5014354;28;20044;-58
2022/06/14 09:29:39;;;;;;;67.45;63.97;;;;;;;;;;5012823;28;20053;-59
2022/06/14 09:32:19;;;;;;;68.43;64.97;;;;;;;;;;5016399;28;20052;-58
2022/06/14 09:34:56;;;;;;;96.80;92.03;;;;;;;;;;5013079;28;20121;-59
2022/06/14 09:37:31;;;;;;;71.10;67.55;;;;;;;;;;5013845;28;20033;-59
2022/06/14 09:40:19;;;;;;;68.10;64.72;;;;;;;;;;5011925;28;20084;-59
2022/06/14 09:42:55;;;;;;;62.10;58.97;;;;;;;;;;5013455;28;20515;-59
2022/06/14 09:45:57;;;;;;;72.47;68.85;;;;;;;;;;5013611;28;20033;-59
2022/06/14 09:49:12;;;;;;;72.00;68.40;;;;;;;;;;5014941;28;20466;-59
2022/06/14 09:52:06;;;;;;;80.97;76.97;;;;;;;;;;5016639;28;20029;-59
2022/06/14 09:55:09;;;;;;;72.35;68.75;;;;;;;;;;5014873;28;20108;-59
2022/06/14 09:58:00;;;;;;;82.88;78.60;;;;;;;;;;5014415;28;20028;-60
2022/06/14 10:00:44;;;;;;;84.90;80.72;;;;;;;;;;5031727;28;20029;-59
2022/06/14 10:03:38;;;;;;;83.20;79.10;;;;;;;;;;5015318;28;20033;-60
2022/06/14 10:06:31;;;;;;;86.43;82.15;;;;;;;;;;5014161;28;20057;-59
2022/06/14 10:09:24;;;;;;;98.00;93.20;;;;;;;;;;5011902;28;20030;-59
2022/06/14 10:12:11;;;;;;;97.47;92.63;;;;;;;;;;5011157;28;20115;-59
2022/06/14 10:15:08;;;;;;;88.57;84.25;;;;;;;;;;5015327;28;20044;-59
2022/06/14 10:17:53;;;;;;;83.82;79.72;;;;;;;;;;5014782;28;20139;-59
2022/06/14 10:20:32;;;;;;;61.88;58.78;;;;;;;;;;5011252;28;20156;-60
2022/06/14 10:23:26;;;;;;;88.90;84.53;;;;;;;;;;5012676;28;20384;-59
2022/06/14 10:29:39;;;;;;;93.20;88.60;;;;;;;;;;5009699;28;20026;-60
2022/06/14 10:32:07;;;;;;;87.90;83.55;;;;;;;;;;5011611;28;20040;-59
2022/06/14 10:34:44;;;;;;;70.32;66.82;;;;;;;;;;5009466;28;20483;-60
2022/06/14 10:37:38;;;;;;;89.30;84.90;;;;;;;;;;5012462;28;20037;-59
2022/06/14 10:40:25;;;;;;;65.95;62.65;;;;;;;;;;5010717;28;20620;-60
2022/06/14 10:43:00;;;;;;;74.57;70.88;;;;;;;;;;5009689;28;20579;-60
2022/06/14 10:45:40;;;;;;;69.93;66.45;;;;;;;;;;5012410;28;20655;-60
2022/06/14 10:48:21;;;;;;;70.78;67.22;;;;;;;;;;5008058;28;20243;-60
2022/06/14 10:51:20;;;;;;;70.57;67.07;;;;;;;;;;5008350;28;20053;-60
2022/06/14 10:53:55;;;;;;;70.35;66.85;;;;;;;;;;5011269;28;20615;-59
2022/06/14 10:56:59;;;;;;;70.60;67.07;;;;;;;;;;5014833;28;20108;-60
2022/06/14 11:00:03;;;;;;;74.68;70.95;;;;;;;;;;5010856;28;20061;-60
2022/06/14 11:02:46;;;;;;;71.10;67.47;;;;;;;;;;4947148;28;20148;-60
2022/06/14 11:05:41;;;;;;;69.47;66.03;;;;;;;;;;4958092;28;20135;-60
2022/06/14 11:08:31;;;;;;;66.57;63.28;;;;;;;;;;4995398;28;20045;-60
2022/06/14 11:11:38;;;;;;;80.00;75.93;;;;;;;;;;5011315;28;20079;-60
2022/06/14 11:14:22;;;;;;;84.28;79.95;;;;;;;;;;5010975;28;20480;-59
2022/06/14 11:17:21;;;;;;;84.68;80.50;;;;;;;;;;5015383;28;20120;-59
2022/06/14 11:20:07;;;;;;;81.50;77.43;;;;;;;;;;5014080;28;20044;-60
2022/06/14 11:22:42;;;;;;;96.32;91.57;;;;;;;;;;5009587;28;20041;-62
2022/06/14 11:25:28;;;;;;;99.50;94.05;;;;;;;;;;5011815;28;20036;-60
2022/06/14 11:28:27;;;;;;;108.63;103.28;;;;;;;;;;5012110;28;20292;-59
2022/06/14 11:31:04;;;;;;;125.47;119.30;;;;;;;;;;5014070;28;20415;-59
2022/06/14 11:33:54;;;;;;;115.30;109.65;;;;;;;;;;5009324;28;20169;-61
2022/06/14 11:36:50;;;;;;;117.78;111.97;;;;;;;;;;5013671;28;20107;-60
2022/06/14 11:39:29;;;;;;;122.30;116.30;;;;;;;;;;5011319;28;20038;-58
2022/06/14 11:41:55;;;;;;;130.07;123.63;;;;;;;;;;5013059;28;20029;-57
2022/06/14 11:44:48;;;;;;;118.05;112.20;;;;;;;;;;5015012;28;20390;-59
2022/06/14 11:47:42;;;;;;;117.28;111.50;;;;;;;;;;5016026;28;20378;-59
2022/06/14 11:50:21;;;;;;;108.80;103.45;;;;;;;;;;5014287;28;20830;-58
2022/06/14 11:53:28;;;;;;;133.27;126.67;;;;;;;;;;5017104;28;20111;-58
2022/06/14 11:56:03;;;;;;;123.78;117.70;;;;;;;;;;5014125;28;20291;-59
2022/06/14 11:58:31;;;;;;;136.13;129.43;;;;;;;;;;5018250;28;20033;-59
2022/06/14 12:01:06;;;;;;;138.13;131.35;;;;;;;;;;5015594;28;20560;-58
2022/06/14 12:03:50;;;;;;;151.75;144.30;;;;;;;;;;5013266;28;20083;-58
2022/06/14 12:06:43;;;;;;;141.90;134.90;;;;;;;;;;5016953;28;20088;-59
2022/06/14 12:09:37;;;;;;;161.15;153.23;;;;;;;;;;5016174;28;20041;-58
2022/06/14 12:12:24;;;;;;;126.53;120.28;;;;;;;;;;5017051;28;20040;-60
2022/06/14 12:14:59;;;;;;;109.40;104.05;;;;;;;;;;5018178;28;20045;-58
2022/06/14 12:17:29;;;;;;;128.07;121.72;;;;;;;;;;5016300;28;20037;-59
2022/06/14 12:20:11;;;;;;;113.20;107.63;;;;;;;;;;5016301;28;20222;-60
2022/06/14 12:22:52;;;;;;;134.07;127.45;;;;;;;;;;5014244;28;20048;-59
2022/06/14 12:28:43;;;;;;;123.28;117.13;;;;;;;;;;5018838;28;20040;-60
2022/06/14 12:31:18;;;;;;;97.68;92.88;;;;;;;;;;5017385;28;20069;-59
2022/06/14 12:33:51;;;;;;;101.75;96.75;;;;;;;;;;5016184;28;20041;-60
2022/06/14 12:36:28;;;;;;;78.18;74.22;;;;;;;;;;5016172;28;20119;-58
2022/06/14 12:38:59;;;;;;;116.03;110.28;;;;;;;;;;5015695;28;20155;-60
2022/06/14 12:41:35;;;;;;;80.45;76.45;;;;;;;;;;5015785;28;20040;-58
2022/06/14 12:44:12;;;;;;;122.85;116.80;;;;;;;;;;5032424;28;21266;-60
2022/06/14 12:46:43;;;;;;;83.03;78.90;;;;;;;;;;5014250;28;20030;-59
2022/06/14 12:49:20;;;;;;;109.68;104.28;;;;;;;;;;5016182;28;20908;-59
2022/06/14 12:51:58;;;;;;;342.75;142.38;;;;;;;;;;5016896;28;20324;-59
2022/06/14 12:54:40;;;;;;;83.53;79.40;;;;;;;;;;5015363;28;20032;-59
2022/06/14 12:57:29;;;;;;;111.95;106.40;;;;;;;;;;5013966;28;20041;-59
2022/06/14 13:00:26;;;;;;;141.95;134.98;;;;;;;;;;5010882;28;20072;-59
2022/06/14 13:03:00;;;;;;;151.48;144.00;;;;;;;;;;5014840;28;20104;-58
2022/06/14 13:05:31;;;;;;;172.55;164.02;;;;;;;;;;5016586;28;20490;-59
2022/06/14 13:08:03;;;;;;;111.47;106.00;;;;;;;;;;5031635;28;20048;-59
2022/06/14 13:10:37;;;;;;;211.82;201.25;;;;;;;;;;5014292;28;20025;-59
2022/06/14 13:13:30;;;;;;;1779.47;674.15;;;;;;;;;;5012417;28;20042;-59
2022/06/14 13:16:05;;;;;;;206.43;196.27;;;;;;;;;;5015856;28;20041;-59
2022/06/14 13:18:40;;;;;;;213.20;202.73;;;;;;;;;;5014617;28;20065;-57
2022/06/14 13:21:31;;;;;;;228.95;217.02;;;;;;;;;;5012941;28;20037;-58
2022/06/14 13:24:05;;;;;;;228.57;217.40;;;;;;;;;;5013474;28;20047;-58
2022/06/14 13:26:45;;;;;;;314.42;193.95;;;;;;;;;;5015793;28;20113;-59
2022/06/14 13:29:34;;;;;;;149.38;141.98;;;;;;;;;;5013903;28;20992;-59
2022/06/14 13:32:33;;;;;;;221.52;210.63;;;;;;;;;;5014094;28;20486;-59
2022/06/14 13:35:37;;;;;;;222.13;211.23;;;;;;;;;;5014491;28;20140;-60
2022/06/14 13:38:20;;;;;;;235.68;224.23;;;;;;;;;;5012342;28;20045;-59
2022/06/14 13:41:04;;;;;;;250.63;238.43;;;;;;;;;;5015076;28;20049;-59
2022/06/14 13:43:50;;;;;;;241.65;229.73;;;;;;;;;;5013316;28;21965;-59
2022/06/14 13:46:41;;;;;;;277.02;220.43;;;;;;;;;;5011966;28;20038;-58
2022/06/14 13:49:26;;;;;;;249.52;179.15;;;;;;;;;;5015945;28;20061;-58
2022/06/14 13:52:00;;;;;;;242.77;230.93;;;;;;;;;;5011243;28;20068;-59
2022/06/14 13:54:52;;;;;;;246.88;234.82;;;;;;;;;;5014392;28;20084;-59
2022/06/14 13:57:36;;;;;;;198.38;188.65;;;;;;;;;;5020129;28;20041;-59
2022/06/14 14:00:16;;;;;;;166.27;158.02;;;;;;;;;;5012650;28;20040;-58
2022/06/14 14:03:14;;;;;;;259.33;246.65;;;;;;;;;;5012941;28;20791;-59
2022/06/14 14:05:45;;;;;;;167.55;159.32;;;;;;;;;;5012630;28;20034;-59
2022/06/14 14:08:23;;;;;;;178.77;169.95;;;;;;;;;;5014175;28;20033;-59
2022/06/14 14:11:43;;;;;;;166.93;158.73;;;;;;;;;;5009867;28;20041;-58
2022/06/14 14:14:32;;;;;;;202.82;192.93;;;;;;;;;;5006801;28;20084;-59
2022/06/14 14:17:06;;;;;;;217.82;203.73;;;;;;;;;;5013183;28;20048;-59
2022/06/14 14:19:47;;;;;;;155.43;147.82;;;;;;;;;;5015458;28;20645;-59
2022/06/14 14:22:26;;;;;;;266.52;253.50;;;;;;;;;;5013460;28;20041;-59
2022/06/14 14:24:54;;;;;;;173.05;164.57;;;;;;;;;;5015192;28;20037;-59
2022/06/14 14:27:33;;;;;;;550.72;194.82;;;;;;;;;;5015414;28;20479;-59
2022/06/14 14:30:27;;;;;;;150.07;142.70;;;;;;;;;;5012408;28;20041;-59
2022/06/14 14:33:05;;;;;;;140.25;133.30;;;;;;;;;;5029967;28;20061;-58
2022/06/14 14:35:44;;;;;;;182.32;173.35;;;;;;;;;;5010052;28;20075;-59
2022/06/14 14:38:17;;;;;;;134.80;128.17;;;;;;;;;;5012335;28;20045;-59
2022/06/14 14:43:37;;;;;;;162.10;154.10;;;;;;;;;;5012998;28;20054;-59
2022/06/14 14:46:17;;;;;;;150.15;142.75;;;;;;;;;;5014886;28;20046;-60
2022/06/14 14:48:45;;;;;;;213.18;202.75;;;;;;;;;;5014329;28;20042;-60
2022/06/14 14:51:48;;;;;;;202.85;192.98;;;;;;;;;;5011229;28;20482;-65
2022/06/14 14:54:35;;;;;;;186.73;177.60;;;;;;;;;;5010750;28;20045;-65
2022/06/14 14:57:14;;;;;;;149.57;142.15;;;;;;;;;;5012566;28;20038;-65
2022/06/14 14:59:45;;;;;;;164.33;156.27;;;;;;;;;;5010605;28;20033;-64
2022/06/14 15:05:21;;;;;;;134.85;128.20;;;;;;;;;;5010957;28;20592;-63
2022/06/14 15:07:52;;;;;;;124.47;118.37;;;;;;;;;;5015590;28;20888;-64
2022/06/14 15:10:22;;;;;;;134.27;127.60;;;;;;;;;;5013821;28;20046;-59
2022/06/14 15:12:49;;;;;;;197.73;188.07;;;;;;;;;;5012955;28;20033;-59
2022/06/14 15:15:29;;;;;;;117.68;111.90;;;;;;;;;;5012459;28;20041;-59
2022/06/14 15:20:56;;;;;;;121.78;115.78;;;;;;;;;;5015143;28;20096;-59
2022/06/14 15:23:36;;;;;;;120.38;114.18;;;;;;;;;;5018055;28;20030;-58
2022/06/14 15:26:03;;;;;;;116.35;110.63;;;;;;;;;;5019714;28;20030;-59
2022/06/14 15:28:59;;;;;;;151.52;144.07;;;;;;;;;;5018358;28;20175;-59
2022/06/14 15:31:24;;;;;;;174.77;166.18;;;;;;;;;;5016430;28;20049;-59
2022/06/14 15:33:50;;;;;;;231.82;220.52;;;;;;;;;;5018385;28;20033;-59
2022/06/14 15:36:27;;;;;;;140.55;133.63;;;;;;;;;;5016244;28;20045;-60
2022/06/14 15:39:02;;;;;;;142.77;135.80;;;;;;;;;;5017656;28;20048;-60
2022/06/14 15:41:32;;;;;;;121.30;115.38;;;;;;;;;;5016360;28;20439;-59
2022/06/14 15:44:02;;;;;;;121.60;115.60;;;;;;;;;;5015168;28;20030;-59
2022/06/14 15:46:32;;;;;;;158.77;150.90;;;;;;;;;;5016933;28;20034;-60